createdAt,value
2018-10-21T00:00:20.588Z,5.69
2018-10-21T00:02:48.173Z,5.68
2018-10-21T00:05:15.730Z,5.68
2018-10-21T00:07:43.642Z,5.66
2018-10-21T00:10:12.424Z,5.65
2018-10-21T00:12:40.117Z,5.64
2018-10-21T00:15:08.464Z,5.63
2018-10-21T00:17:35.997Z,5.63
2018-10-21T00:20:03.550Z,5.60
2018-10-21T00:22:31.161Z,5.57
2018-10-21T00:24:59.134Z,5.58
2018-10-21T00:27:26.747Z,5.56
2018-10-21T00:29:54.249Z,5.54
2018-10-21T00:32:26.151Z,5.50
2018-10-21T00:34:53.710Z,5.46
2018-10-21T00:37:21.216Z,5.43
2018-10-21T00:39:48.718Z,5.39
2018-10-21T00:42:16.571Z,5.34
2018-10-21T00:44:44.122Z,5.29
2018-10-21T00:47:11.620Z,5.26
2018-10-21T00:49:39.174Z,5.22
2018-10-21T00:52:07.059Z,5.17
2018-10-21T00:54:34.585Z,5.13
2018-10-21T00:57:02.143Z,5.09
2018-10-21T00:59:29.660Z,5.09
2018-10-21T01:01:57.170Z,5.10
2018-10-21T01:04:24.693Z,5.11
2018-10-21T01:06:52.180Z,5.12
2018-10-21T01:09:20.133Z,5.11
2018-10-21T01:11:47.605Z,5.11
2018-10-21T01:14:15.130Z,5.13
2018-10-21T01:16:42.638Z,5.15
2018-10-21T01:19:10.517Z,5.17
2018-10-21T01:21:38.201Z,5.17
2018-10-21T01:24:05.758Z,5.17
2018-10-21T01:26:33.690Z,5.16
2018-10-21T01:29:01.226Z,5.16
2018-10-21T01:31:28.751Z,5.15
2018-10-21T01:33:57.378Z,5.13
2018-10-21T01:36:25.248Z,5.11
2018-10-21T01:38:52.515Z,5.10
2018-10-21T01:41:20.098Z,5.10
2018-10-21T01:43:47.930Z,5.09
2018-10-21T01:46:15.433Z,5.10
2018-10-21T01:48:44.103Z,5.07
2018-10-21T01:51:11.686Z,5.04
2018-10-21T01:53:39.610Z,5.01
2018-10-21T01:56:07.111Z,5.00
2018-10-21T01:58:34.613Z,4.98
2018-10-21T02:01:02.578Z,4.96
2018-10-21T02:03:30.082Z,4.94
2018-10-21T02:05:57.603Z,4.90
2018-10-21T02:08:25.109Z,4.86
2018-10-21T02:10:53.040Z,4.83
2018-10-21T02:13:20.590Z,4.80
2018-10-21T02:15:48.112Z,4.78
2018-10-21T02:18:15.679Z,4.79
2018-10-21T02:20:43.711Z,4.81
2018-10-21T02:23:11.249Z,4.83
2018-10-21T02:25:38.805Z,4.83
2018-10-21T02:28:06.402Z,4.84
2018-10-21T02:30:34.367Z,4.84
2018-10-21T02:33:02.446Z,4.85
2018-10-21T02:35:30.077Z,4.86
2018-10-21T02:37:58.573Z,4.86
2018-10-21T02:40:26.170Z,4.86
2018-10-21T02:42:53.785Z,4.84
2018-10-21T02:45:21.456Z,4.77
2018-10-21T02:47:49.056Z,4.70
2018-10-21T02:50:16.658Z,4.65
2018-10-21T02:52:44.259Z,4.59
2018-10-21T02:55:12.205Z,4.56
2018-10-21T02:57:39.765Z,4.51
2018-10-21T03:00:07.308Z,4.48
2018-10-21T03:02:35.189Z,4.46
2018-10-21T03:05:02.773Z,4.42
2018-10-21T03:07:30.361Z,4.39
2018-10-21T03:09:58.385Z,4.38
2018-10-21T03:12:25.944Z,4.37
2018-10-21T03:14:53.507Z,4.39
2018-10-21T03:17:21.065Z,4.41
2018-10-21T03:19:49.035Z,4.41
2018-10-21T03:22:16.589Z,4.41
2018-10-21T03:24:44.182Z,4.42
2018-10-21T03:27:11.871Z,4.42
2018-10-21T03:29:39.894Z,4.45
2018-10-21T03:32:07.445Z,4.48
2018-10-21T03:34:35.018Z,4.50
2018-10-21T03:37:04.059Z,4.51
2018-10-21T03:39:31.622Z,4.52
2018-10-21T03:41:59.208Z,4.53
2018-10-21T03:44:26.780Z,4.51
2018-10-21T03:46:55.681Z,4.49
2018-10-21T03:49:23.253Z,4.48
2018-10-21T03:51:50.829Z,4.46
2018-10-21T03:54:20.111Z,4.45
2018-10-21T03:56:48.049Z,4.44
2018-10-21T03:59:15.637Z,4.44
2018-10-21T04:01:43.193Z,4.44
2018-10-21T04:04:10.823Z,4.43
2018-10-21T04:06:38.737Z,4.45
2018-10-21T04:09:06.313Z,4.43
2018-10-21T04:11:33.882Z,4.42
2018-10-21T04:14:01.439Z,4.40
2018-10-21T04:16:29.373Z,4.38
2018-10-21T04:18:56.972Z,4.35
2018-10-21T04:21:24.557Z,4.34
2018-10-21T04:23:52.113Z,4.33
2018-10-21T04:26:20.025Z,4.34
2018-10-21T04:28:47.665Z,4.32
2018-10-21T04:31:15.279Z,4.32
2018-10-21T04:33:44.162Z,4.30
2018-10-21T04:36:13.949Z,4.27
2018-10-21T04:38:41.556Z,4.23
2018-10-21T04:41:09.113Z,4.20
2018-10-21T04:43:37.177Z,4.18
2018-10-21T04:46:04.736Z,4.16
2018-10-21T04:48:32.320Z,4.14
2018-10-21T04:50:59.885Z,4.11
2018-10-21T04:53:27.760Z,4.10
2018-10-21T04:55:55.407Z,4.09
2018-10-21T04:58:22.981Z,4.08
2018-10-21T05:00:50.607Z,4.08
2018-10-21T05:03:18.450Z,4.06
2018-10-21T05:05:45.996Z,4.09
2018-10-21T05:08:13.565Z,4.10
2018-10-21T05:10:41.630Z,4.10
2018-10-21T05:13:10.200Z,4.08
2018-10-21T05:15:39.014Z,4.06
2018-10-21T05:18:06.673Z,4.02
2018-10-21T05:20:34.689Z,3.98
2018-10-21T05:23:02.253Z,3.92
2018-10-21T05:25:29.817Z,3.87
2018-10-21T05:27:58.235Z,3.83
2018-10-21T05:30:25.783Z,3.80
2018-10-21T05:32:53.359Z,3.78
2018-10-21T05:35:21.704Z,3.75
2018-10-21T05:37:49.296Z,3.75
2018-10-21T05:40:18.193Z,3.74
2018-10-21T05:42:46.056Z,3.74
2018-10-21T05:45:14.123Z,3.78
2018-10-21T05:47:42.114Z,3.80
2018-10-21T05:50:09.888Z,3.85
2018-10-21T05:52:37.987Z,3.87
2018-10-21T05:55:05.529Z,3.87
2018-10-21T05:57:33.084Z,3.87
2018-10-21T06:00:00.649Z,3.86
2018-10-21T06:02:28.210Z,3.85
2018-10-21T06:04:56.830Z,3.82
2018-10-21T06:07:24.830Z,3.82
2018-10-21T06:09:53.064Z,3.81
2018-10-21T06:12:20.643Z,3.79
2018-10-21T06:14:49.554Z,3.76
2018-10-21T06:17:25.521Z,3.74
2018-10-21T06:19:56.077Z,3.73
2018-10-21T06:22:23.617Z,3.75
2018-10-21T06:24:51.153Z,3.77
2018-10-21T06:27:19.197Z,3.78
2018-10-21T06:29:46.796Z,3.80
2018-10-21T06:32:14.358Z,3.84
2018-10-21T06:34:42.041Z,3.91
2018-10-21T06:37:10.025Z,3.97
2018-10-21T06:39:37.628Z,4.00
2018-10-21T06:42:05.176Z,4.05
2018-10-21T06:44:32.749Z,4.09
2018-10-21T06:47:01.691Z,4.15
2018-10-21T06:49:29.246Z,4.21
2018-10-21T06:51:56.836Z,4.27
2018-10-21T06:54:24.391Z,4.34
2018-10-21T06:56:52.588Z,4.41
2018-10-21T06:59:20.009Z,4.50
2018-10-21T07:01:47.605Z,4.56
2018-10-21T07:04:15.642Z,4.63
2018-10-21T07:06:43.470Z,4.71
2018-10-21T07:09:11.064Z,4.80
2018-10-21T07:11:38.943Z,4.90
2018-10-21T07:14:06.493Z,5.01
2018-10-21T07:16:34.265Z,5.11
2018-10-21T07:19:02.163Z,5.21
2018-10-21T07:21:29.748Z,5.32
2018-10-21T07:23:57.885Z,5.43
2018-10-21T07:26:25.741Z,5.57
2018-10-21T07:28:53.326Z,5.70
2018-10-21T07:31:21.093Z,5.83
2018-10-21T07:33:49.125Z,5.95
2018-10-21T07:36:16.694Z,6.07
2018-10-21T07:38:44.288Z,6.24
2018-10-21T07:41:12.325Z,6.44
2018-10-21T07:43:41.198Z,6.64
2018-10-21T07:46:10.425Z,6.83
2018-10-21T07:48:38.400Z,6.96
2018-10-21T07:51:05.952Z,7.11
2018-10-21T07:53:33.493Z,7.25
2018-10-21T07:56:01.442Z,7.40
2018-10-21T08:01:01.932Z,7.68
2018-10-21T08:03:29.926Z,7.86
2018-10-21T08:05:57.477Z,8.06
2018-10-21T08:08:26.129Z,8.21
2018-10-21T08:10:55.363Z,8.34
2018-10-21T08:13:24.243Z,8.48
2018-10-21T08:15:52.444Z,8.73
2018-10-21T08:18:20.352Z,9.03
2018-10-21T08:20:49.136Z,9.35
2018-10-21T08:23:18.356Z,9.63
2018-10-21T08:25:47.544Z,9.81
2018-10-21T08:28:15.675Z,9.93
2018-10-21T08:30:43.272Z,10.03
2018-10-21T08:33:12.288Z,10.09
2018-10-21T08:35:39.853Z,10.18
2018-10-21T08:38:07.388Z,10.29
2018-10-21T08:40:35.248Z,10.35
2018-10-21T08:43:03.924Z,10.40
2018-10-21T08:45:31.473Z,10.46
2018-10-21T08:47:59.462Z,10.59
2018-10-21T08:50:27.002Z,10.71
2018-10-21T08:52:54.584Z,10.81
2018-10-21T08:55:22.473Z,10.90
2018-10-21T08:57:50.065Z,10.97
2018-10-21T09:00:19.679Z,11.06
2018-10-21T09:02:50.788Z,11.14
2018-10-21T09:05:20.383Z,11.22
2018-10-21T09:07:48.185Z,11.29
2018-10-21T09:10:17.586Z,11.36
2018-10-21T09:12:45.162Z,11.42
2018-10-21T09:15:14.367Z,11.47
2018-10-21T09:17:44.249Z,11.52
2018-10-21T09:20:14.397Z,11.54
2018-10-21T09:22:43.913Z,11.60
2018-10-21T09:25:12.715Z,11.65
2018-10-21T09:27:41.210Z,11.71
2018-10-21T09:30:08.775Z,11.79
2018-10-21T09:32:36.629Z,11.88
2018-10-21T09:35:04.210Z,11.98
2018-10-21T09:37:32.479Z,12.10
2018-10-21T09:40:00.613Z,12.27
2018-10-21T09:42:28.199Z,12.56
2018-10-21T09:44:57.625Z,12.86
2018-10-21T09:47:25.468Z,13.35
2018-10-21T09:49:54.628Z,14.15
2018-10-21T09:52:22.877Z,15.13
2018-10-21T09:54:51.504Z,16.02
2018-10-21T09:57:19.064Z,16.90
2018-10-21T09:59:47.236Z,17.79
2018-10-21T10:02:20.201Z,18.74
2018-10-21T10:04:47.782Z,19.53
2018-10-21T10:07:15.434Z,20.32
2018-10-21T10:09:43.489Z,21.11
2018-10-21T10:12:11.554Z,21.81
2018-10-21T10:14:39.209Z,22.31
2018-10-21T10:17:07.311Z,22.66
2018-10-21T10:19:34.929Z,23.07
2018-10-21T10:22:02.644Z,23.57
2018-10-21T10:24:30.682Z,24.05
2018-10-21T10:26:59.665Z,24.47
2018-10-21T10:29:27.440Z,24.81
2018-10-21T10:31:55.576Z,24.95
2018-10-21T10:34:23.130Z,24.96
2018-10-21T10:36:51.373Z,24.73
2018-10-21T10:39:19.506Z,24.23
2018-10-21T10:41:47.300Z,23.86
2018-10-21T10:44:18.513Z,23.65
2018-10-21T10:46:47.513Z,23.49
2018-10-21T10:49:15.171Z,23.43
2018-10-21T10:51:42.758Z,23.46
2018-10-21T10:54:10.754Z,23.43
2018-10-21T10:56:38.346Z,23.53
2018-10-21T10:59:05.972Z,23.52
2018-10-21T11:01:33.972Z,23.35
2018-10-21T11:04:01.659Z,22.87
2018-10-21T11:06:29.857Z,22.40
2018-10-21T11:08:58.749Z,22.00
2018-10-21T11:11:26.316Z,21.92
2018-10-21T11:13:54.621Z,21.93
2018-10-21T11:16:22.592Z,21.97
2018-10-21T11:18:50.725Z,21.87
2018-10-21T11:21:19.212Z,21.43
2018-10-21T11:23:47.939Z,21.09
2018-10-21T11:26:15.509Z,20.95
2018-10-21T11:28:44.673Z,21.26
2018-10-21T11:31:12.712Z,21.42
2018-10-21T11:33:40.307Z,21.26
2018-10-21T11:36:09.640Z,21.19
2018-10-21T11:38:37.504Z,21.24
2018-10-21T11:41:05.088Z,21.35
2018-10-21T11:43:32.623Z,21.33
2018-10-21T11:46:00.595Z,21.55
2018-10-21T11:48:28.159Z,21.89
2018-10-21T11:50:55.748Z,21.87
2018-10-21T11:53:23.665Z,21.54
2018-10-21T11:55:52.983Z,21.20
2018-10-21T11:58:20.537Z,20.88
2018-10-21T12:00:48.668Z,20.47
2018-10-21T12:03:16.936Z,20.11
2018-10-21T12:05:45.654Z,19.99
2018-10-21T12:08:14.938Z,20.13
2018-10-21T12:10:42.548Z,20.38
2018-10-21T12:13:10.641Z,20.64
2018-10-21T12:15:38.238Z,20.93
2018-10-21T12:18:05.913Z,20.85
2018-10-21T12:20:33.912Z,20.57
2018-10-21T12:23:02.527Z,20.25
2018-10-21T12:25:30.256Z,19.99
2018-10-21T12:27:58.135Z,19.74
2018-10-21T12:30:26.333Z,19.53
2018-10-21T12:32:54.000Z,19.35
2018-10-21T12:35:23.052Z,19.18
2018-10-21T12:37:50.624Z,19.03
2018-10-21T12:40:19.812Z,18.87
2018-10-21T12:42:48.073Z,18.71
2018-10-21T12:45:15.631Z,18.64
2018-10-21T12:47:44.949Z,18.55
2018-10-21T12:50:14.452Z,18.45
2018-10-21T12:52:42.116Z,18.29
2018-10-21T12:55:11.750Z,18.18
2018-10-21T12:57:39.928Z,18.09
2018-10-21T13:00:07.534Z,18.05
2018-10-21T13:02:36.238Z,18.02
2018-10-21T13:05:04.081Z,17.99
2018-10-21T13:07:31.665Z,17.95
2018-10-21T13:09:59.310Z,17.90
2018-10-21T13:12:31.580Z,17.86
2018-10-21T13:14:59.173Z,17.83
2018-10-21T13:17:26.774Z,17.84
2018-10-21T13:19:56.236Z,17.85
2018-10-21T13:22:24.472Z,17.87
2018-10-21T13:24:52.116Z,17.85
2018-10-21T13:27:20.080Z,17.85
2018-10-21T13:29:48.298Z,17.83
2018-10-21T13:32:16.926Z,17.81
2018-10-21T13:34:45.605Z,17.80
2018-10-21T13:37:13.400Z,17.81
2018-10-21T13:39:41.811Z,17.84
2018-10-21T13:42:09.707Z,17.86
2018-10-21T13:44:37.257Z,17.89
2018-10-21T13:47:04.792Z,18.00
2018-10-21T13:49:32.669Z,18.05
2018-10-21T13:52:00.520Z,18.06
2018-10-21T13:54:28.147Z,18.06
2018-10-21T13:56:56.980Z,18.04
2018-10-21T13:59:24.554Z,18.04
2018-10-21T14:01:52.130Z,18.03
2018-10-21T14:04:21.673Z,18.04
2018-10-21T14:06:49.329Z,18.01
2018-10-21T14:09:18.432Z,18.00
2018-10-21T14:11:47.114Z,17.98
2018-10-21T14:14:14.708Z,17.95
2018-10-21T14:16:42.547Z,17.94
2018-10-21T14:19:10.720Z,17.94
2018-10-21T14:21:40.083Z,17.98
2018-10-21T14:24:08.454Z,18.05
2018-10-21T14:26:36.374Z,18.15
2018-10-21T14:29:03.976Z,18.26
2018-10-21T14:31:31.509Z,18.33
2018-10-21T14:33:59.347Z,18.35
2018-10-21T14:36:26.954Z,18.39
2018-10-21T14:38:54.578Z,18.41
2018-10-21T14:41:22.596Z,18.41
2018-10-21T14:43:50.628Z,18.45
2018-10-21T14:46:18.188Z,18.45
2018-10-21T14:48:46.840Z,18.43
2018-10-21T14:51:14.491Z,18.37
2018-10-21T14:53:42.698Z,18.29
2018-10-21T14:56:11.715Z,18.25
2018-10-21T14:58:39.322Z,18.20
2018-10-21T15:01:06.930Z,18.19
2018-10-21T15:03:35.203Z,18.14
2018-10-21T15:06:02.732Z,18.03
2018-10-21T15:08:30.300Z,17.95
2018-10-21T15:10:59.590Z,17.83
2018-10-21T15:13:28.039Z,17.70
2018-10-21T15:15:55.607Z,17.54
2018-10-21T15:18:23.605Z,17.38
2018-10-21T15:20:54.823Z,17.23
2018-10-21T15:23:22.391Z,17.07
2018-10-21T15:25:50.284Z,16.92
2018-10-21T15:28:17.913Z,16.76
2018-10-21T15:30:45.463Z,16.62
2018-10-21T15:33:14.468Z,16.47
2018-10-21T15:35:42.136Z,16.33
2018-10-21T15:38:09.716Z,16.20
2018-10-21T15:40:38.270Z,16.09
2018-10-21T15:43:05.805Z,15.97
2018-10-21T15:45:33.572Z,15.84
2018-10-21T15:48:02.067Z,15.70
2018-10-21T15:50:30.329Z,15.58
2018-10-21T15:52:57.887Z,15.46
2018-10-21T15:55:25.708Z,15.33
2018-10-21T15:57:53.264Z,15.20
2018-10-21T16:00:20.840Z,15.09
2018-10-21T16:02:48.824Z,14.98
2018-10-21T16:05:18.906Z,14.86
2018-10-21T16:07:46.463Z,14.75
2018-10-21T16:10:14.409Z,14.63
2018-10-21T16:12:41.949Z,14.52
2018-10-21T16:15:10.077Z,14.40
2018-10-21T16:17:37.953Z,14.29
2018-10-21T16:20:06.196Z,14.16
2018-10-21T16:22:33.765Z,14.04
2018-10-21T16:25:02.769Z,13.91
2018-10-21T16:27:31.544Z,13.80
2018-10-21T16:29:59.129Z,13.67
2018-10-21T16:32:27.608Z,13.56
2018-10-21T16:34:56.274Z,13.42
2018-10-21T16:37:25.702Z,13.32
2018-10-21T16:39:56.265Z,13.22
2018-10-21T16:42:23.810Z,13.13
2018-10-21T16:44:53.896Z,13.03
2018-10-21T16:47:21.800Z,12.95
2018-10-21T16:49:49.365Z,12.87
2018-10-21T16:52:18.505Z,12.78
2018-10-21T16:54:46.535Z,12.73
2018-10-21T16:57:16.560Z,12.69
2018-10-21T16:59:44.684Z,12.63
2018-10-21T17:02:13.377Z,12.59
2018-10-21T17:04:41.010Z,12.57
2018-10-21T17:07:09.720Z,12.51
2018-10-21T17:09:38.251Z,12.42
2018-10-21T17:12:07.308Z,12.35
2018-10-21T17:14:37.316Z,12.29
2018-10-21T17:17:06.483Z,12.19
2018-10-21T17:19:36.377Z,12.06
2018-10-21T17:22:07.095Z,11.95
2018-10-21T17:24:35.266Z,11.88
2018-10-21T17:27:04.263Z,11.80
2018-10-21T17:29:33.480Z,11.78
2018-10-21T17:32:02.473Z,11.74
2018-10-21T17:34:31.309Z,11.74
2018-10-21T17:37:01.712Z,11.72
2018-10-21T17:39:30.866Z,11.68
2018-10-21T17:41:58.539Z,11.63
2018-10-21T17:44:27.349Z,11.58
2018-10-21T17:46:55.765Z,11.53
2018-10-21T17:49:23.309Z,11.48
2018-10-21T17:51:55.649Z,11.44
2018-10-21T17:54:23.264Z,11.39
2018-10-21T17:56:56.569Z,11.34
2018-10-21T17:59:25.412Z,11.30
2018-10-21T18:01:52.976Z,11.27
2018-10-21T18:04:20.560Z,11.22
2018-10-21T18:06:50.603Z,11.19
2018-10-21T18:09:19.310Z,11.14
2018-10-21T18:11:46.900Z,11.09
2018-10-21T18:14:15.648Z,11.04
2018-10-21T18:16:44.777Z,11.00
2018-10-21T18:19:13.323Z,10.98
2018-10-21T18:21:41.512Z,10.94
2018-10-21T18:24:09.185Z,10.93
2018-10-21T18:26:37.678Z,10.87
2018-10-21T18:29:07.092Z,10.86
2018-10-21T18:31:35.277Z,10.82
2018-10-21T18:34:03.720Z,10.77
2018-10-21T18:36:32.553Z,10.69
2018-10-21T18:39:00.994Z,10.58
2018-10-21T18:41:28.738Z,10.48
2018-10-21T18:43:56.837Z,10.40
2018-10-21T18:46:24.465Z,10.32
2018-10-21T18:48:52.774Z,10.26
2018-10-21T18:51:20.793Z,10.20
2018-10-21T18:53:48.328Z,10.12
2018-10-21T18:56:15.872Z,10.05
2018-10-21T18:58:44.690Z,9.97
2018-10-21T19:01:13.360Z,9.90
2018-10-21T19:03:41.207Z,9.83
2018-10-21T19:06:09.760Z,9.78
2018-10-21T19:11:12.329Z,9.64
2018-10-21T19:13:42.806Z,9.56
2018-10-21T19:16:10.576Z,9.50
2018-10-21T19:18:38.115Z,9.44
2018-10-21T19:21:06.096Z,9.37
2018-10-21T19:23:35.369Z,9.30
2018-10-21T19:26:03.006Z,9.23
2018-10-21T19:28:31.698Z,9.16
2018-10-21T19:31:01.022Z,9.10
2018-10-21T19:33:28.591Z,9.04
2018-10-21T19:35:58.425Z,9.00
2018-10-21T19:38:30.387Z,8.93
2018-10-21T19:40:58.469Z,8.91
2018-10-21T19:43:26.669Z,8.90
2018-10-21T19:45:56.181Z,8.89
2018-10-21T19:48:24.356Z,8.87
2018-10-21T19:50:54.522Z,8.84
2018-10-21T19:53:22.403Z,8.78
2018-10-21T19:55:50.047Z,8.76
2018-10-21T19:58:18.593Z,8.73
2018-10-21T20:00:47.584Z,8.72
2018-10-21T20:03:15.156Z,8.70
2018-10-21T20:08:18.982Z,8.64
2018-10-21T20:10:46.597Z,8.61
2018-10-21T20:13:14.676Z,8.58
2018-10-21T20:15:43.134Z,8.55
2018-10-21T20:18:11.759Z,8.50
2018-10-21T20:20:39.605Z,8.45
2018-10-21T20:23:08.500Z,8.42
2018-10-21T20:25:36.591Z,8.36
2018-10-21T20:28:04.483Z,8.32
2018-10-21T20:30:32.026Z,8.27
2018-10-21T20:33:00.475Z,8.25
2018-10-21T20:35:28.844Z,8.25
2018-10-21T20:37:57.767Z,8.23
2018-10-21T20:40:25.328Z,8.21
2018-10-21T20:42:52.899Z,8.19
2018-10-21T20:45:23.831Z,8.15
2018-10-21T20:47:52.008Z,8.11
2018-10-21T20:50:19.593Z,8.05
2018-10-21T20:52:48.195Z,8.02
2018-10-21T20:55:17.729Z,8.00
2018-10-21T20:57:45.536Z,7.97
2018-10-21T21:00:14.456Z,7.94
2018-10-21T21:02:43.513Z,7.89
2018-10-21T21:05:11.083Z,7.84
2018-10-21T21:07:39.119Z,7.78
2018-10-21T21:10:06.651Z,7.73
2018-10-21T21:12:34.253Z,7.68
2018-10-21T21:15:02.100Z,7.65
2018-10-21T21:17:29.663Z,7.60
2018-10-21T21:19:58.340Z,7.57
2018-10-21T21:22:27.125Z,7.55
2018-10-21T21:24:58.354Z,7.55
2018-10-21T21:27:25.948Z,7.51
2018-10-21T21:29:53.834Z,7.48
2018-10-21T21:32:22.053Z,7.48
2018-10-21T21:34:49.609Z,7.46
2018-10-21T21:37:17.596Z,7.44
2018-10-21T21:39:46.016Z,7.44
2018-10-21T21:42:14.394Z,7.44
2018-10-21T21:44:42.473Z,7.43
2018-10-21T21:47:10.056Z,7.42
2018-10-21T21:49:38.358Z,7.39
2018-10-21T21:52:06.300Z,7.36
2018-10-21T21:54:33.829Z,7.32
2018-10-21T21:57:01.383Z,7.27
2018-10-21T21:59:30.611Z,7.23
2018-10-21T22:01:59.060Z,7.19
2018-10-21T22:04:27.154Z,7.15
2018-10-21T22:06:56.332Z,7.13
2018-10-21T22:09:24.420Z,7.10
2018-10-21T22:11:51.974Z,7.08
2018-10-21T22:14:19.529Z,7.05
2018-10-21T22:16:47.585Z,7.06
2018-10-21T22:19:15.140Z,7.05
2018-10-21T22:21:42.668Z,7.06
2018-10-21T22:24:13.009Z,7.05
2018-10-21T22:26:40.513Z,7.05
2018-10-21T22:29:08.408Z,7.03
2018-10-21T22:31:36.431Z,7.02
2018-10-21T22:34:04.020Z,7.04
2018-10-21T22:36:31.651Z,7.03
2018-10-21T22:38:59.212Z,7.03
2018-10-21T22:41:28.040Z,7.03
2018-10-21T22:43:56.869Z,7.03
2018-10-21T22:46:24.449Z,7.02
2018-10-21T22:48:51.990Z,7.00
2018-10-21T22:51:20.043Z,6.96
2018-10-21T22:53:47.593Z,6.90
2018-10-21T22:56:15.133Z,6.85
2018-10-21T22:58:42.731Z,6.81
2018-10-21T23:01:10.633Z,6.76
2018-10-21T23:03:42.463Z,6.72
2018-10-21T23:06:10.049Z,6.69
2018-10-21T23:08:38.399Z,6.67
2018-10-21T23:11:06.398Z,6.66
2018-10-21T23:13:34.804Z,6.67
2018-10-21T23:16:02.381Z,6.66
2018-10-21T23:18:30.464Z,6.66
2018-10-21T23:20:58.086Z,6.63
2018-10-21T23:23:25.633Z,6.62
2018-10-21T23:25:53.180Z,6.61
2018-10-21T23:28:22.501Z,6.60
2018-10-21T23:30:50.037Z,6.59
2018-10-21T23:33:17.569Z,6.54
2018-10-21T23:35:45.452Z,6.52
2018-10-21T23:38:13.020Z,6.52
2018-10-21T23:40:40.544Z,6.51
2018-10-21T23:43:08.479Z,6.50
2018-10-21T23:45:36.484Z,6.50
2018-10-21T23:48:04.062Z,6.49
2018-10-21T23:50:31.641Z,6.50
2018-10-21T23:52:59.199Z,6.49
2018-10-21T23:55:27.133Z,6.49
2018-10-21T23:57:54.708Z,6.46
